KASH/ASH METAR and TAF weather

Enter ICAO airport designator
Station Type Date Time Source
KASH METAR 2018/01/21 11:56 UTC NOAA

KASH 211156Z AUTO 00000KT 10SM FEW038 M03/M03 A3008 RMK AO2 SLP199 70014 T10281028 11028 21056 51027


Station Type Date Time Source
KASH Decoded METAR 2018/01/21 11:56 UTC NOAA

Nashua, Boire Field Airport, NH, United States (KASH) 42-46-54N 071-30-53W
Jan 21, 2018 - 06:56 AM EST / 2018.01.21 1156 UTC
Wind: Calm:0
Visibility: 10 mile(s):0
Sky conditions: mostly clear
Temperature: 27.0 F (-2.8 C)
Dew Point: 27.0 F (-2.8 C)
Relative Humidity: 100%
Pressure (altimeter): 30.08 in. Hg (1018 hPa)
Pressure tendency: 0.08 inches (2.7 hPa) higher than three hours ago
ob: KASH 211156Z AUTO 00000KT 10SM FEW038 M03/M03 A3008 RMK AO2 SLP199 70014 T10281028 11028 21056 51027
cycle: 12

Station Type Date Time Source
KASH TAF UTC NOAA

Error!


Example: see airport list